Darstellungsparameter: Aktuell verwendete Einstellungen:
Skalierung der Graphiken ... ?
xyx+y,   Skalierungsfaktor:      Skalierung: Modus: x, Faktor: 1
Darstellungszeitraum ... ?
Vom - - bis: - -   Zeitraum: 13.08.2021 - 13.08.2021
Min/Max/Avg-Anzeige ... ?
Zeige MMA aktuell
Zeige MMA Monat
Zeige MMA alles
Zeige --A aktuell
Zeige --A Monat
Zeige --A alles
Keine MMA-Anzeige
MMA:
Average (ber die Originaldaten)
MMA-Basis: 13.08.2021 - 13.08.2021
Quicknavigation für Darstellung... ?
Tage:      1T, 2T, 3T, 5T -1T -2T -3T -5T +1T +2T +3T +5T
Wochen: 1W, 2W, 3W -1W -2W -3W +1W +2W +3W
Monate: 1M, 3M, 6M -1M -3M -6M +1M +3M +6M
Jahre:    1J, 3J, 5J, 10J -1J -3J -5J -10J +1J +3J +5J +10J
Nutze für die Darstellung ... ?
Originaldaten oder Mittelwerte auf ...
Stundenbasis Tagesbasis Wochenbasis
Monatsbasis Jahresbasis      Datenbasis: Original-Daten
Darstellen als:
Statistik (Auto) Statistik J:M      Darstellung:
Zur Graphik,    zurück zur Übersicht aller Sensoren.
 
Tabellarische Datenbersicht: ?
 
Sensor: Nr:Datum:Temp:Abs-Feuchte:Windchill:Wind:
Aussen-T/F 1 13-08-2021 00:00:00 18.2 C 14.14 g/m*3 18.2 C 0 km/h
2 13-08-2021 00:05:00 18.1 C 14.06 g/m*3 18.1 C 0 km/h
3 13-08-2021 00:10:00 18 C 13.98 g/m*3 18 C 0 km/h
4 13-08-2021 00:15:00 17.9 C 13.89 g/m*3 17.9 C 0 km/h
5 13-08-2021 00:20:00 17.9 C 14.05 g/m*3 17.9 C 0 km/h
6 13-08-2021 00:25:00 17.8 C 13.81 g/m*3 17.8 C 0 km/h
7 13-08-2021 00:30:00 17.7 C 13.88 g/m*3 17.7 C 0 km/h
8 13-08-2021 00:35:00 17.7 C 13.88 g/m*3 17.7 C 0 km/h
9 13-08-2021 00:40:00 17.7 C 13.88 g/m*3 17.7 C 0 km/h
10 13-08-2021 00:45:00 17.6 C 13.8 g/m*3 17.6 C 0 km/h
11 13-08-2021 00:50:00 17.6 C 13.8 g/m*3 17.6 C 0 km/h
12 13-08-2021 00:55:00 17.4 C 13.63 g/m*3 17.4 C 0 km/h
13 13-08-2021 01:00:00 17.4 C 13.78 g/m*3 17.4 C 0 km/h
14 13-08-2021 01:05:00 17.3 C 13.7 g/m*3 17.3 C 0 km/h
15 13-08-2021 01:10:00 17.3 C 13.7 g/m*3 17.3 C 0 km/h
16 13-08-2021 01:15:00 17.2 C 13.62 g/m*3 17.2 C 0 km/h
17 13-08-2021 01:20:00 17.2 C 13.62 g/m*3 17.2 C 0 km/h
18 13-08-2021 01:25:00 17.1 C 13.54 g/m*3 17.1 C 0 km/h
19 13-08-2021 01:30:00 17.1 C 13.54 g/m*3 17.1 C 0 km/h
20 13-08-2021 01:35:00 17.1 C 13.68 g/m*3 17.1 C 0 km/h
21 13-08-2021 01:40:00 17.1 C 13.68 g/m*3 17.1 C 0 km/h
22 13-08-2021 01:45:00 17 C 13.6 g/m*3 17 C 1.6 km/h
23 13-08-2021 01:50:00 17 C 13.6 g/m*3 17 C 3.2 km/h
24 13-08-2021 01:55:00 17 C 13.6 g/m*3 17 C 0 km/h
25 13-08-2021 02:00:00 16.9 C 13.52 g/m*3 16.9 C 0 km/h
Sensor: Nr:Datum:Temp:Abs-Feuchte:Windchill:Wind:
Aussen-T/F 26 13-08-2021 02:05:00 17 C 13.6 g/m*3 17 C 1.6 km/h
27 13-08-2021 02:10:00 17.1 C 13.68 g/m*3 17.1 C 0 km/h
28 13-08-2021 02:15:00 17 C 13.6 g/m*3 17 C 0 km/h
29 13-08-2021 02:20:00 16.9 C 13.52 g/m*3 16.9 C 0 km/h
30 13-08-2021 02:25:00 16.8 C 13.44 g/m*3 16.8 C 0 km/h
31 13-08-2021 02:30:00 16.8 C 13.44 g/m*3 16.8 C 0 km/h
32 13-08-2021 02:35:00 16.7 C 13.36 g/m*3 16.7 C 0 km/h
33 13-08-2021 02:40:00 16.8 C 13.44 g/m*3 16.8 C 0 km/h
34 13-08-2021 02:45:00 16.7 C 13.36 g/m*3 16.7 C 0 km/h
35 13-08-2021 02:50:00 16.7 C 13.36 g/m*3 16.7 C 0 km/h
36 13-08-2021 02:55:00 16.6 C 13.28 g/m*3 16.6 C 0 km/h
37 13-08-2021 03:00:00 16.6 C 13.28 g/m*3 16.6 C 0 km/h
38 13-08-2021 03:05:00 16.5 C 13.2 g/m*3 16.5 C 0 km/h
39 13-08-2021 03:10:00 16.4 C 13.12 g/m*3 16.4 C 0 km/h
40 13-08-2021 03:15:00 16.4 C 13.12 g/m*3 16.4 C 0 km/h
41 13-08-2021 03:20:00 16.3 C 13.04 g/m*3 16.3 C 0 km/h
42 13-08-2021 03:25:00 16.3 C 13.04 g/m*3 16.3 C 0 km/h
43 13-08-2021 03:30:00 16.2 C 12.96 g/m*3 16.2 C 0 km/h
44 13-08-2021 03:35:00 16.2 C 12.96 g/m*3 16.2 C 0 km/h
45 13-08-2021 03:40:00 16.2 C 12.96 g/m*3 16.2 C 0 km/h
46 13-08-2021 03:45:00 16.2 C 13.1 g/m*3 16.2 C 0 km/h
47 13-08-2021 03:50:00 16.1 C 13.02 g/m*3 16.1 C 0 km/h
48 13-08-2021 03:55:00 16.1 C 13.02 g/m*3 16.1 C 0 km/h
49 13-08-2021 04:00:00 16.1 C 13.02 g/m*3 16.1 C 0 km/h
50 13-08-2021 04:05:00 16 C 12.94 g/m*3 16 C 0 km/h
Sensor: Nr:Datum:Temp:Abs-Feuchte:Windchill:Wind:
Aussen-T/F 51 13-08-2021 04:10:00 16 C 12.94 g/m*3 16 C 0 km/h
52 13-08-2021 04:15:00 16 C 12.94 g/m*3 16 C 0 km/h
53 13-08-2021 04:20:00 16.1 C 13.02 g/m*3 16.1 C 0 km/h
54 13-08-2021 04:25:00 16.1 C 13.02 g/m*3 16.1 C 0 km/h
55 13-08-2021 04:30:00 16.1 C 13.02 g/m*3 16.1 C 0 km/h
56 13-08-2021 04:35:00 16.1 C 13.02 g/m*3 16.1 C 0 km/h
57 13-08-2021 04:40:00 16 C 12.94 g/m*3 16 C 0 km/h
58 13-08-2021 04:45:00 15.9 C 12.87 g/m*3 15.9 C 0 km/h
59 13-08-2021 04:50:00 15.9 C 12.87 g/m*3 15.9 C 0 km/h
60 13-08-2021 04:55:00 15.8 C 12.79 g/m*3 15.8 C 0 km/h
61 13-08-2021 05:00:00 15.8 C 12.79 g/m*3 15.8 C 0 km/h
62 13-08-2021 05:05:00 15.8 C 12.79 g/m*3 15.8 C 0 km/h
63 13-08-2021 05:10:00 15.8 C 12.79 g/m*3 15.8 C 0 km/h
64 13-08-2021 05:15:00 15.7 C 12.71 g/m*3 15.7 C 0 km/h
65 13-08-2021 05:20:00 15.7 C 12.71 g/m*3 15.7 C 0 km/h
66 13-08-2021 05:25:00 15.6 C 12.63 g/m*3 15.6 C 0 km/h
67 13-08-2021 05:30:00 15.6 C 12.63 g/m*3 15.6 C 0 km/h
68 13-08-2021 05:35:00 15.6 C 12.63 g/m*3 15.6 C 0 km/h
69 13-08-2021 05:40:00 15.6 C 12.63 g/m*3 15.6 C 0 km/h
70 13-08-2021 05:45:00 15.6 C 12.63 g/m*3 15.6 C 0 km/h
71 13-08-2021 05:50:00 15.6 C 12.77 g/m*3 15.6 C 0 km/h
72 13-08-2021 05:55:00 15.7 C 12.84 g/m*3 15.7 C 0 km/h
73 13-08-2021 06:00:00 15.7 C 12.84 g/m*3 15.7 C 0 km/h
74 13-08-2021 06:05:00 15.7 C 12.84 g/m*3 15.7 C 0 km/h
75 13-08-2021 06:10:00 15.7 C 12.84 g/m*3 15.7 C 0 km/h
Sensor: Nr:Datum:Temp:Abs-Feuchte:Windchill:Wind:
Aussen-T/F 76 13-08-2021 06:15:00 15.7 C 12.84 g/m*3 15.7 C 0 km/h
77 13-08-2021 06:20:00 15.7 C 12.84 g/m*3 15.7 C 0 km/h
78 13-08-2021 06:25:00 15.6 C 12.77 g/m*3 15.6 C 0 km/h
79 13-08-2021 06:30:00 15.6 C 12.77 g/m*3 15.6 C 0 km/h
80 13-08-2021 06:35:00 15.6 C 12.77 g/m*3 15.6 C 0 km/h
81 13-08-2021 06:40:00 15.6 C 12.77 g/m*3 15.6 C 0 km/h
82 13-08-2021 06:45:00 15.6 C 12.77 g/m*3 15.6 C 0 km/h
83 13-08-2021 06:50:00 15.6 C 12.77 g/m*3 15.6 C 0 km/h
84 13-08-2021 06:55:00 15.7 C 12.84 g/m*3 15.7 C 0 km/h
85 13-08-2021 07:00:00 15.7 C 12.84 g/m*3 15.7 C 0 km/h
86 13-08-2021 07:05:00 15.7 C 12.84 g/m*3 15.7 C 0 km/h
87 13-08-2021 07:10:00 15.8 C 12.92 g/m*3 15.8 C 0 km/h
88 13-08-2021 07:15:00 15.8 C 12.92 g/m*3 15.8 C 0 km/h
89 13-08-2021 07:20:00 15.8 C 12.92 g/m*3 15.8 C 0 km/h
90 13-08-2021 07:25:00 15.9 C 13 g/m*3 15.9 C 0 km/h
91 13-08-2021 07:30:00 15.9 C 13 g/m*3 15.9 C 0 km/h
92 13-08-2021 07:35:00 15.9 C 13 g/m*3 15.9 C 1.6 km/h
93 13-08-2021 07:40:00 16 C 13.08 g/m*3 16 C 0 km/h
94 13-08-2021 07:45:00 16.1 C 13.16 g/m*3 16.1 C 0 km/h
95 13-08-2021 07:50:00 16.1 C 13.16 g/m*3 16.1 C 0 km/h
96 13-08-2021 07:55:00 16.2 C 13.24 g/m*3 16.2 C 0 km/h
97 13-08-2021 08:00:00 16.3 C 13.46 g/m*3 16.3 C 0 km/h
98 13-08-2021 08:05:00 16.4 C 13.54 g/m*3 16.4 C 0 km/h
99 13-08-2021 08:10:00 16.4 C 13.4 g/m*3 16.4 C 0 km/h
100 13-08-2021 08:15:00 16.6 C 13.56 g/m*3 16.6 C 0 km/h
Sensor: Nr:Datum:Temp:Abs-Feuchte:Windchill:Wind:
Aussen-T/F 101 13-08-2021 08:20:00 16.7 C 13.79 g/m*3 16.7 C 0 km/h
102 13-08-2021 08:25:00 16.8 C 13.87 g/m*3 16.8 C 0 km/h
103 13-08-2021 08:30:00 16.9 C 13.95 g/m*3 16.9 C 0 km/h
104 13-08-2021 08:35:00 17.1 C 14.12 g/m*3 17.1 C 0 km/h
105 13-08-2021 08:40:00 17.2 C 14.2 g/m*3 17.2 C 0 km/h
106 13-08-2021 08:45:00 17.3 C 14.29 g/m*3 17.3 C 0 km/h
107 13-08-2021 08:50:00 17.5 C 14.46 g/m*3 17.5 C 1.6 km/h
108 13-08-2021 08:55:00 17.6 C 14.55 g/m*3 17.6 C 0 km/h
109 13-08-2021 09:00:00 17.7 C 14.64 g/m*3 17.7 C 0 km/h
110 13-08-2021 09:05:00 17.8 C 14.72 g/m*3 17.8 C 0 km/h
111 13-08-2021 09:10:00 17.8 C 14.72 g/m*3 17.8 C 0 km/h
112 13-08-2021 09:15:00 17.9 C 14.81 g/m*3 17.9 C 0 km/h
113 13-08-2021 09:20:00 17.9 C 14.66 g/m*3 17.9 C 1.6 km/h
114 13-08-2021 09:25:00 18.1 C 14.83 g/m*3 18.1 C 1.6 km/h
115 13-08-2021 09:30:00 18.2 C 14.92 g/m*3 18.2 C 0 km/h
116 13-08-2021 09:35:00 18.3 C 15.01 g/m*3 18.3 C 0 km/h
117 13-08-2021 09:40:00 18.4 C 15.1 g/m*3 18.4 C 0 km/h
118 13-08-2021 09:45:00 18.4 C 15.1 g/m*3 18.4 C 0 km/h
119 13-08-2021 09:50:00 18.6 C 15.28 g/m*3 18.6 C 0 km/h
120 13-08-2021 09:55:00 18.7 C 15.37 g/m*3 18.7 C 0 km/h
121 13-08-2021 10:00:00 18.8 C 15.46 g/m*3 18.8 C 0 km/h
122 13-08-2021 10:05:00 18.9 C 15.55 g/m*3 18.9 C 0 km/h
123 13-08-2021 10:10:00 19.1 C 15.74 g/m*3 19.1 C 0 km/h
124 13-08-2021 10:15:00 19.2 C 15.83 g/m*3 19.2 C 0 km/h
125 13-08-2021 10:20:00 19.4 C 16.02 g/m*3 19.4 C 0 km/h
Sensor: Nr:Datum:Temp:Abs-Feuchte:Windchill:Wind:
Aussen-T/F 126 13-08-2021 10:25:00 19.6 C 16.04 g/m*3 19.6 C 0 km/h
127 13-08-2021 10:30:00 19.7 C 16.13 g/m*3 19.7 C 0 km/h
128 13-08-2021 10:35:00 19.9 C 16.32 g/m*3 19.9 C 0 km/h
129 13-08-2021 10:40:00 20.1 C 16.51 g/m*3 20.1 C 0 km/h
130 13-08-2021 10:45:00 20.3 C 16.71 g/m*3 20.3 C 0 km/h
131 13-08-2021 10:50:00 20.6 C 17 g/m*3 20.6 C 0 km/h
132 13-08-2021 10:55:00 20.8 C 17.02 g/m*3 20.8 C 0 km/h
133 13-08-2021 11:00:00 20.9 C 16.94 g/m*3 20.9 C 0 km/h
134 13-08-2021 11:05:00 21.1 C 17.14 g/m*3 21.1 C 0 km/h
135 13-08-2021 11:10:00 21.2 C 17.23 g/m*3 21.2 C 0 km/h
136 13-08-2021 11:15:00 21.4 C 17.25 g/m*3 21.4 C 0 km/h
137 13-08-2021 11:20:00 21.7 C 17.36 g/m*3 21.7 C 0 km/h
138 13-08-2021 11:25:00 21.8 C 17.27 g/m*3 21.8 C 0 km/h
139 13-08-2021 11:30:00 22.2 C 17.67 g/m*3 22.2 C 0 km/h
140 13-08-2021 11:35:00 22.4 C 17.87 g/m*3 22.4 C 0 km/h
141 13-08-2021 11:40:00 22.6 C 17.88 g/m*3 22.6 C 0 km/h
142 13-08-2021 11:45:00 22.7 C 17.78 g/m*3 22.7 C 0 km/h
143 13-08-2021 11:50:00 22.7 C 17.58 g/m*3 22.7 C 0 km/h
144 13-08-2021 11:55:00 22.8 C 17.68 g/m*3 22.8 C 0 km/h
145 13-08-2021 12:00:00 23 C 17.47 g/m*3 23 C 6.4 km/h
146 13-08-2021 12:05:00 23.2 C 17.67 g/m*3 23.2 C 3.2 km/h
147 13-08-2021 12:10:00 23.4 C 17.87 g/m*3 23.4 C 1.6 km/h
148 13-08-2021 12:15:00 23.7 C 18.18 g/m*3 23.7 C 0 km/h
149 13-08-2021 12:20:00 23.8 C 18.07 g/m*3 23.8 C 4.8 km/h
150 13-08-2021 12:25:00 24.1 C 18.38 g/m*3 24.1 C 3.2 km/h
Sensor: Nr:Datum:Temp:Abs-Feuchte:Windchill:Wind:
Aussen-T/F 151 13-08-2021 12:30:00 24.2 C 18.04 g/m*3 24.2 C 8.1 km/h
152 13-08-2021 12:35:00 24.3 C 17.26 g/m*3 24.3 C 8.1 km/h
153 13-08-2021 12:40:00 24.6 C 16.88 g/m*3 24.6 C 8.1 km/h
154 13-08-2021 12:45:00 24.8 C 16.62 g/m*3 24.8 C 8.1 km/h
155 13-08-2021 12:50:00 24.9 C 16.94 g/m*3 24.9 C 8.1 km/h
156 13-08-2021 12:55:00 25.1 C 16.9 g/m*3 25.1 C 6.4 km/h
157 13-08-2021 13:00:00 25.2 C 16.76 g/m*3 25.2 C 9.7 km/h
158 13-08-2021 13:05:00 25.3 C 16.62 g/m*3 25.3 C 6.4 km/h
159 13-08-2021 13:10:00 25.5 C 16.81 g/m*3 25.5 C 11.3 km/h
160 13-08-2021 13:15:00 25.6 C 17.86 g/m*3 25.6 C 11.3 km/h
161 13-08-2021 13:20:00 25.5 C 16.81 g/m*3 25.5 C 6.4 km/h
162 13-08-2021 13:25:00 25.5 C 17.05 g/m*3 25.5 C 3.2 km/h
163 13-08-2021 13:30:00 25.6 C 16.9 g/m*3 25.6 C 3.2 km/h
164 13-08-2021 13:35:00 25.7 C 17.48 g/m*3 25.7 C 1.6 km/h
165 13-08-2021 13:40:00 25.8 C 17.57 g/m*3 25.8 C 0 km/h
166 13-08-2021 13:45:00 26 C 17.77 g/m*3 26 C 3.2 km/h
167 13-08-2021 13:50:00 26.1 C 17.38 g/m*3 26.1 C 3.2 km/h
168 13-08-2021 13:55:00 26.2 C 17.48 g/m*3 26.2 C 6.4 km/h
169 13-08-2021 14:00:00 26.4 C 17.67 g/m*3 26.4 C 4.8 km/h
170 13-08-2021 14:05:00 26.6 C 17.37 g/m*3 26.6 C 9.7 km/h
171 13-08-2021 14:10:00 26.7 C 17.72 g/m*3 26.7 C 9.7 km/h
172 13-08-2021 14:15:00 26.8 C 17.31 g/m*3 26.8 C 9.7 km/h
173 13-08-2021 14:20:00 26.9 C 17.4 g/m*3 26.9 C 4.8 km/h
174 13-08-2021 14:25:00 27.1 C 17.34 g/m*3 27.1 C 9.7 km/h
175 13-08-2021 14:30:00 27.2 C 17.7 g/m*3 27.2 C 8.1 km/h
Sensor: Nr:Datum:Temp:Abs-Feuchte:Windchill:Wind:
Aussen-T/F 176 13-08-2021 14:35:00 27.2 C 17.43 g/m*3 27.2 C 12.9 km/h
177 13-08-2021 14:40:00 27.3 C 17.53 g/m*3 27.3 C 9.7 km/h
178 13-08-2021 14:45:00 27.2 C 17.43 g/m*3 27.2 C 14.5 km/h
179 13-08-2021 14:50:00 27.1 C 17.34 g/m*3 27.1 C 9.7 km/h
180 13-08-2021 14:55:00 27.1 C 17.08 g/m*3 27.1 C 11.3 km/h
181 13-08-2021 15:00:00 27 C 17.5 g/m*3 27 C 8.1 km/h
182 13-08-2021 15:05:00 26.9 C 17.15 g/m*3 26.9 C 9.7 km/h
183 13-08-2021 15:10:00 26.9 C 17.15 g/m*3 26.9 C 6.4 km/h
184 13-08-2021 15:15:00 26.9 C 17.4 g/m*3 26.9 C 6.4 km/h
185 13-08-2021 15:20:00 27 C 17.5 g/m*3 27 C 4.8 km/h
186 13-08-2021 15:25:00 26.9 C 17.4 g/m*3 26.9 C 9.7 km/h
187 13-08-2021 15:30:00 26.9 C 17.15 g/m*3 26.9 C 8.1 km/h
188 13-08-2021 15:35:00 26.9 C 17.15 g/m*3 26.9 C 8.1 km/h
189 13-08-2021 15:40:00 27 C 17.24 g/m*3 27 C 9.7 km/h
190 13-08-2021 15:45:00 27.1 C 17.34 g/m*3 27.1 C 9.7 km/h
191 13-08-2021 15:50:00 27.1 C 17.34 g/m*3 27.1 C 9.7 km/h
192 13-08-2021 15:55:00 27 C 17.24 g/m*3 27 C 12.9 km/h
193 13-08-2021 16:00:00 26.9 C 17.4 g/m*3 26.9 C 9.7 km/h
194 13-08-2021 16:05:00 26.7 C 17.21 g/m*3 26.7 C 12.9 km/h
195 13-08-2021 16:10:00 26.6 C 17.12 g/m*3 26.6 C 9.7 km/h
196 13-08-2021 16:15:00 26.4 C 16.93 g/m*3 26.4 C 8.1 km/h
197 13-08-2021 16:20:00 26.4 C 17.18 g/m*3 26.4 C 11.3 km/h
198 13-08-2021 16:25:00 26.4 C 17.18 g/m*3 26.4 C 11.3 km/h
199 13-08-2021 16:30:00 26.6 C 17.12 g/m*3 26.6 C 17.7 km/h
200 13-08-2021 16:35:00 26.8 C 17.31 g/m*3 26.8 C 11.3 km/h
Sensor: Nr:Datum:Temp:Abs-Feuchte:Windchill:Wind:
Aussen-T/F 201 13-08-2021 16:40:00 26.9 C 17.15 g/m*3 26.9 C 12.9 km/h
202 13-08-2021 16:45:00 26.8 C 16.8 g/m*3 26.8 C 11.3 km/h
203 13-08-2021 16:50:00 26.8 C 17.05 g/m*3 26.8 C 12.9 km/h
204 13-08-2021 16:55:00 27 C 16.73 g/m*3 27 C 12.9 km/h
205 13-08-2021 17:00:00 26.8 C 16.54 g/m*3 26.8 C 12.9 km/h
206 13-08-2021 17:05:00 26.6 C 16.36 g/m*3 26.6 C 14.5 km/h
207 13-08-2021 17:10:00 26.3 C 16.34 g/m*3 26.3 C 12.9 km/h
208 13-08-2021 17:15:00 26.3 C 16.34 g/m*3 26.3 C 11.3 km/h
209 13-08-2021 17:20:00 26.3 C 16.09 g/m*3 26.3 C 14.5 km/h
210 13-08-2021 17:25:00 26.1 C 15.91 g/m*3 26.1 C 9.7 km/h
211 13-08-2021 17:30:00 26 C 16.07 g/m*3 26 C 9.7 km/h
212 13-08-2021 17:35:00 26.1 C 16.4 g/m*3 26.1 C 9.7 km/h
213 13-08-2021 17:40:00 26.3 C 16.09 g/m*3 26.3 C 9.7 km/h
214 13-08-2021 17:45:00 26.4 C 16.18 g/m*3 26.4 C 9.7 km/h
215 13-08-2021 17:50:00 26.3 C 16.34 g/m*3 26.3 C 8.1 km/h
216 13-08-2021 17:55:00 26.2 C 16 g/m*3 26.2 C 6.4 km/h
217 13-08-2021 18:00:00 26.1 C 16.4 g/m*3 26.1 C 0 km/h
218 13-08-2021 18:05:00 26.1 C 16.89 g/m*3 26.1 C 3.2 km/h
219 13-08-2021 18:10:00 25.9 C 16.22 g/m*3 25.9 C 3.2 km/h
220 13-08-2021 18:15:00 25.9 C 16.22 g/m*3 25.9 C 3.2 km/h
221 13-08-2021 18:20:00 26 C 16.8 g/m*3 26 C 3.2 km/h
222 13-08-2021 18:25:00 25.9 C 16.95 g/m*3 25.9 C 3.2 km/h
223 13-08-2021 18:30:00 25.9 C 17.43 g/m*3 25.9 C 1.6 km/h
224 13-08-2021 18:35:00 25.8 C 16.61 g/m*3 25.8 C 0 km/h
225 13-08-2021 18:40:00 25.7 C 16.76 g/m*3 25.7 C 1.6 km/h
Sensor: Nr:Datum:Temp:Abs-Feuchte:Windchill:Wind:
Aussen-T/F 226 13-08-2021 18:45:00 25.6 C 15.95 g/m*3 25.6 C 9.7 km/h
227 13-08-2021 18:50:00 25.6 C 15.71 g/m*3 25.6 C 9.7 km/h
228 13-08-2021 18:55:00 25.6 C 15.71 g/m*3 25.6 C 9.7 km/h
229 13-08-2021 19:00:00 25.8 C 15.65 g/m*3 25.8 C 8.1 km/h
230 13-08-2021 19:05:00 25.9 C 15.49 g/m*3 25.9 C 8.1 km/h
231 13-08-2021 19:10:00 26.1 C 15.91 g/m*3 26.1 C 4.8 km/h
232 13-08-2021 19:15:00 26.2 C 16 g/m*3 26.2 C 6.4 km/h
233 13-08-2021 19:20:00 26.3 C 15.6 g/m*3 26.3 C 9.7 km/h
234 13-08-2021 19:25:00 26.3 C 15.6 g/m*3 26.3 C 6.4 km/h
235 13-08-2021 19:30:00 26.2 C 15.02 g/m*3 26.2 C 8.1 km/h
236 13-08-2021 19:35:00 26.1 C 15.42 g/m*3 26.1 C 8.1 km/h
237 13-08-2021 19:40:00 26 C 15.58 g/m*3 26 C 3.2 km/h
238 13-08-2021 19:45:00 25.9 C 15.01 g/m*3 25.9 C 9.7 km/h
239 13-08-2021 19:50:00 25.8 C 15.17 g/m*3 25.8 C 6.4 km/h
240 13-08-2021 19:55:00 25.7 C 15.08 g/m*3 25.7 C 8.1 km/h
241 13-08-2021 20:00:00 25.4 C 14.83 g/m*3 25.4 C 6.4 km/h
242 13-08-2021 20:05:00 25.3 C 14.98 g/m*3 25.3 C 4.8 km/h
243 13-08-2021 20:10:00 25.1 C 15.05 g/m*3 25.1 C 3.2 km/h
244 13-08-2021 20:15:00 24.9 C 15.11 g/m*3 24.9 C 3.2 km/h
245 13-08-2021 20:20:00 24.9 C 16.02 g/m*3 24.9 C 1.6 km/h
246 13-08-2021 20:25:00 24.8 C 16.39 g/m*3 24.8 C 0 km/h
247 13-08-2021 20:30:00 24.4 C 16.02 g/m*3 24.4 C 0 km/h
248 13-08-2021 20:35:00 24.1 C 15.97 g/m*3 24.1 C 1.6 km/h
249 13-08-2021 20:40:00 23.5 C 15.65 g/m*3 23.5 C 1.6 km/h
250 13-08-2021 20:45:00 23 C 15.62 g/m*3 23 C 0 km/h
Sensor: Nr:Datum:Temp:Abs-Feuchte:Windchill:Wind:
Aussen-T/F 251 13-08-2021 20:50:00 22.6 C 15.47 g/m*3 22.6 C 3.2 km/h
252 13-08-2021 20:55:00 22.2 C 15.31 g/m*3 22.2 C 0 km/h
253 13-08-2021 21:00:00 21.8 C 15.16 g/m*3 21.8 C 0 km/h
254 13-08-2021 21:05:00 21.5 C 15.09 g/m*3 21.5 C 0 km/h
255 13-08-2021 21:10:00 21.2 C 15.01 g/m*3 21.2 C 3.2 km/h
256 13-08-2021 21:15:00 20.9 C 14.93 g/m*3 20.9 C 4.8 km/h
257 13-08-2021 21:20:00 20.8 C 14.85 g/m*3 20.8 C 4.8 km/h
258 13-08-2021 21:25:00 20.6 C 14.86 g/m*3 20.6 C 4.8 km/h
259 13-08-2021 21:30:00 20.4 C 14.68 g/m*3 20.4 C 4.8 km/h
260 13-08-2021 21:35:00 20.3 C 14.77 g/m*3 20.3 C 6.4 km/h
261 13-08-2021 21:40:00 20.1 C 14.6 g/m*3 20.1 C 6.4 km/h
262 13-08-2021 21:45:00 20 C 14.69 g/m*3 20 C 4.8 km/h
263 13-08-2021 21:50:00 19.8 C 14.52 g/m*3 19.8 C 6.4 km/h
264 13-08-2021 21:55:00 19.7 C 14.43 g/m*3 19.7 C 6.4 km/h
265 13-08-2021 22:00:00 19.7 C 14.6 g/m*3 19.7 C 1.6 km/h
266 13-08-2021 22:05:00 19.6 C 14.52 g/m*3 19.6 C 0 km/h
267 13-08-2021 22:10:00 19.4 C 14.35 g/m*3 19.4 C 1.6 km/h
268 13-08-2021 22:15:00 19.3 C 14.43 g/m*3 19.3 C 3.2 km/h
269 13-08-2021 22:20:00 19.2 C 14.35 g/m*3 19.2 C 0 km/h
270 13-08-2021 22:25:00 19.1 C 14.26 g/m*3 19.1 C 0 km/h
271 13-08-2021 22:30:00 18.9 C 14.09 g/m*3 18.9 C 0 km/h
272 13-08-2021 22:35:00 18.8 C 14.17 g/m*3 18.8 C 0 km/h
273 13-08-2021 22:40:00 18.7 C 14.09 g/m*3 18.7 C 0 km/h
274 13-08-2021 22:45:00 18.6 C 14.01 g/m*3 18.6 C 0 km/h
275 13-08-2021 22:50:00 18.4 C 14 g/m*3 18.4 C 0 km/h
Sensor: Nr:Datum:Temp:Abs-Feuchte:Windchill:Wind:
Aussen-T/F 276 13-08-2021 22:55:00 18.3 C 13.76 g/m*3 18.3 C 0 km/h
277 13-08-2021 23:00:00 18.2 C 13.83 g/m*3 18.2 C 0 km/h
278 13-08-2021 23:05:00 18.1 C 13.75 g/m*3 18.1 C 0 km/h
279 13-08-2021 23:10:00 18 C 13.67 g/m*3 18 C 0 km/h
280 13-08-2021 23:15:00 17.9 C 13.74 g/m*3 17.9 C 0 km/h
281 13-08-2021 23:20:00 17.8 C 13.66 g/m*3 17.8 C 0 km/h
282 13-08-2021 23:25:00 17.8 C 13.66 g/m*3 17.8 C 1.6 km/h
283 13-08-2021 23:30:00 17.8 C 13.81 g/m*3 17.8 C 0 km/h
284 13-08-2021 23:35:00 17.8 C 13.66 g/m*3 17.8 C 0 km/h
285 13-08-2021 23:40:00 17.7 C 13.73 g/m*3 17.7 C 0 km/h
286 13-08-2021 23:45:00 17.6 C 13.65 g/m*3 17.6 C 0 km/h
287 13-08-2021 23:50:00 17.6 C 13.65 g/m*3 17.6 C 0 km/h
288 13-08-2021 23:55:00 17.5 C 13.57 g/m*3 17.5 C 0 km/h

Legende:
   Min
   Max


Maximal/Minimal-Werte vom 13.08.2021 - 13.08.2021

Sensor Min Max Avg
Temp
(Aussen-T/F)
15.6 °C
13-08-2021  05:25:00
27.3 °C
13-08-2021  14:40:00
20.76 °C
Abs-Feuchte
(Aussen-T/F)
12.63 g/m*3
13-08-2021  05:25:00
18.38 g/m*3
13-08-2021  12:25:00
14.99 g/m*3
Windchill
(Aussen-T/F)
15.6 C
13-08-2021  05:25:00
27.3 C
13-08-2021  14:40:00
20.69 C

Die Daten stammen von einer Davis Vantage Pro 2 Wetter-Station und werden unter Linux mit der Software wview2wettercgi und aufbereitet. Alle Angaben erfolgen ohne Gewähr für ihre Vollständigkeit oder Richtigkeit.
Kontakt: Rainer Krienke krienke@uni-koblenz.de . Meine Webseiten an der Uni Koblenz oder privat.
Version: $Revision: 0.78 $